Melissa — E5U2571 — position and weather

sailwx.info

Track history (hours):
 
Tides and Currents Weather Stations Pressure Air Temp Water Temp Dewpoint Dewpoint Depression Visibility Wind Speed Wind Dir Waves Ship Positions

Melissa

Last reported at 2018-Feb-13 19:06 UTC. Time now 2018-Feb-20 17:52 UTC.
Position N 40°14' E 026°00'.

Length 83 m; draft 4.2 m.

Type: Cargo ship. MMSI: 518624000.

Date/timePositionNaut miles runAvg speedWind from/ knotsBaromVisibWave heightAir tempDewpointWater temp
2018-Feb-13 19:06N 40°14' E 026°00'1 7.4
2018-Feb-13 18:59N 40°15' E 025°60'  
2018-Feb-10 21:44N 40°16' E 026°04'1 3.2
2018-Feb-10 21:26N 40°15' E 026°05'1 3.3
2018-Feb-10 20:59N 40°13' E 026°05'2 3.8
2018-Feb-10 20:30N 40°11' E 026°06'  
2018-Feb-07 09:30N 40°46' E 029°15'4 7.0
2018-Feb-07 09:00N 40°49' E 029°13'4 7.4
2018-Feb-07 08:30N 40°52' E 029°11'0 0.2
2018-Feb-07 07:55N 40°52' E 029°11'0 0.0
2018-Feb-07 07:25N 40°52' E 029°11'0 0.0
2018-Feb-07 06:55N 40°52' E 029°11'0 0.1
2018-Feb-07 06:19N 40°52' E 029°11'0 0.0
2018-Feb-07 05:55N 40°52' E 029°11'0 0.0
2018-Feb-07 05:13N 40°52' E 029°11'0 0.0
2018-Feb-07 04:49N 40°52' E 029°11'0 0.0
2018-Feb-07 04:13N 40°52' E 029°11'0 0.0
2018-Feb-07 03:55N 40°52' E 029°11'0 0.0
2018-Feb-07 03:25N 40°52' E 029°11'0 0.0
2018-Feb-07 02:55N 40°52' E 029°11'0 0.0
2018-Feb-07 02:25N 40°52' E 029°11'0 0.0
2018-Feb-07 01:55N 40°52' E 029°11'0 0.0
2018-Feb-07 01:25N 40°52' E 029°11'0 0.0
2018-Feb-07 00:55N 40°52' E 029°11'0 0.2
2018-Feb-07 00:30N 40°52' E 029°11'3 6.0
2018-Feb-07 00:00N 40°50' E 029°08'4 7.1
2018-Feb-06 23:30N 40°50' E 029°04'4 7.4
2018-Feb-06 23:00N 40°51' E 028°59'4 7.2
2018-Feb-06 22:30N 40°55' E 028°57'4 7.8
2018-Feb-06 22:00N 40°58' E 028°59'  
Track history (hours):
 
Tides and Currents Weather Stations Pressure Air Temp Water Temp Dewpoint Dewpoint Depression Visibility Wind Speed Wind Dir Waves Ship Positions

Melissa

Last reported at 2018-Feb-13 19:06 UTC. Time now 2018-Feb-20 17:52 UTC.
Position N 40°14' E 026°00'.

Length 83 m; draft 4.2 m.

Type: Cargo ship. MMSI: 518624000.

Date/timePositionNaut miles runAvg speedWind from/ knotsBaromVisibWave heightAir tempDewpointWater temp
2018-Feb-13 19:06N 40°14' E 026°00'1 7.4
2018-Feb-13 18:59N 40°15' E 025°60'  
2018-Feb-10 21:44N 40°16' E 026°04'1 3.2
2018-Feb-10 21:26N 40°15' E 026°05'1 3.3
2018-Feb-10 20:59N 40°13' E 026°05'2 3.8
2018-Feb-10 20:30N 40°11' E 026°06'  
2018-Feb-07 09:30N 40°46' E 029°15'4 7.0
2018-Feb-07 09:00N 40°49' E 029°13'4 7.4
2018-Feb-07 08:30N 40°52' E 029°11'0 0.2
2018-Feb-07 07:55N 40°52' E 029°11'0 0.0
2018-Feb-07 07:25N 40°52' E 029°11'0 0.0
2018-Feb-07 06:55N 40°52' E 029°11'0 0.1
2018-Feb-07 06:19N 40°52' E 029°11'0 0.0
2018-Feb-07 05:55N 40°52' E 029°11'0 0.0
2018-Feb-07 05:13N 40°52' E 029°11'0 0.0
2018-Feb-07 04:49N 40°52' E 029°11'0 0.0
2018-Feb-07 04:13N 40°52' E 029°11'0 0.0
2018-Feb-07 03:55N 40°52' E 029°11'0 0.0
2018-Feb-07 03:25N 40°52' E 029°11'0 0.0
2018-Feb-07 02:55N 40°52' E 029°11'0 0.0
2018-Feb-07 02:25N 40°52' E 029°11'0 0.0
2018-Feb-07 01:55N 40°52' E 029°11'0 0.0
2018-Feb-07 01:25N 40°52' E 029°11'0 0.0
2018-Feb-07 00:55N 40°52' E 029°11'0 0.2
2018-Feb-07 00:30N 40°52' E 029°11'3 6.0
2018-Feb-07 00:00N 40°50' E 029°08'4 7.1
2018-Feb-06 23:30N 40°50' E 029°04'4 7.4
2018-Feb-06 23:00N 40°51' E 028°59'4 7.2
2018-Feb-06 22:30N 40°55' E 028°57'4 7.8
2018-Feb-06 22:00N 40°58' E 028°59'  

Dump ship's entire track history